sensor_id;sensor_type;location;lat;lon;timestamp;P1;durP1;ratioP1;P2;durP2;ratioP2
70075;SDS011;63241;51.056;3.698;2022-10-16T00:00:16;3.55;;;1.30;;
70075;SDS011;63241;51.056;3.698;2022-10-16T00:03:02;2.45;;;1.12;;
70075;SDS011;63241;51.056;3.698;2022-10-16T00:05:50;2.20;;;1.20;;
70075;SDS011;63241;51.056;3.698;2022-10-16T00:08:39;2.95;;;1.20;;
70075;SDS011;63241;51.056;3.698;2022-10-16T00:11:28;5.20;;;1.12;;
70075;SDS011;63241;51.056;3.698;2022-10-16T00:14:18;2.27;;;1.25;;
70075;SDS011;63241;51.056;3.698;2022-10-16T00:17:07;2.15;;;1.50;;
70075;SDS011;63241;51.056;3.698;2022-10-16T00:19:56;2.47;;;1.30;;
70075;SDS011;63241;51.056;3.698;2022-10-16T00:22:43;2.75;;;1.47;;
70075;SDS011;63241;51.056;3.698;2022-10-16T00:25:33;1.77;;;1.25;;
70075;SDS011;63241;51.056;3.698;2022-10-16T00:28:21;2.22;;;1.20;;
70075;SDS011;63241;51.056;3.698;2022-10-16T00:31:10;3.00;;;1.70;;
70075;SDS011;63241;51.056;3.698;2022-10-16T00:33:58;3.55;;;1.47;;
70075;SDS011;63241;51.056;3.698;2022-10-16T00:36:47;4.47;;;1.82;;
70075;SDS011;63241;51.056;3.698;2022-10-16T00:39:13;6.00;;;1.45;;
70075;SDS011;63241;51.056;3.698;2022-10-16T00:42:02;2.60;;;1.40;;
70075;SDS011;63241;51.056;3.698;2022-10-16T00:48:02;3.52;;;1.72;;
70075;SDS011;63241;51.056;3.698;2022-10-16T00:50:50;3.80;;;1.80;;
70075;SDS011;63241;51.056;3.698;2022-10-16T00:53:37;3.60;;;1.77;;
70075;SDS011;63241;51.056;3.698;2022-10-16T00:56:25;2.85;;;1.85;;
70075;SDS011;63241;51.056;3.698;2022-10-16T00:59:16;2.92;;;1.87;;
70075;SDS011;63241;51.056;3.698;2022-10-16T01:02:06;3.70;;;1.77;;
70075;SDS011;63241;51.056;3.698;2022-10-16T01:04:57;5.00;;;1.65;;
70075;SDS011;63241;51.056;3.698;2022-10-16T01:07:56;3.27;;;1.90;;
70075;SDS011;63241;51.056;3.698;2022-10-16T01:13:42;2.37;;;1.60;;
70075;SDS011;63241;51.056;3.698;2022-10-16T01:16:34;2.72;;;1.60;;
70075;SDS011;63241;51.056;3.698;2022-10-16T01:19:33;3.70;;;1.60;;
70075;SDS011;63241;51.056;3.698;2022-10-16T01:29:24;3.25;;;1.40;;
70075;SDS011;63241;51.056;3.698;2022-10-16T01:35:32;3.72;;;1.60;;
70075;SDS011;63241;51.056;3.698;2022-10-16T01:38:22;4.08;;;1.47;;
70075;SDS011;63241;51.056;3.698;2022-10-16T01:41:22;7.70;;;1.52;;
70075;SDS011;63241;51.056;3.698;2022-10-16T01:44:25;2.98;;;1.50;;
70075;SDS011;63241;51.056;3.698;2022-10-16T01:47:15;2.45;;;1.27;;
70075;SDS011;63241;51.056;3.698;2022-10-16T01:50:07;3.83;;;1.62;;
70075;SDS011;63241;51.056;3.698;2022-10-16T01:52:58;3.20;;;1.35;;
70075;SDS011;63241;51.056;3.698;2022-10-16T01:55:30;6.35;;;1.60;;
70075;SDS011;63241;51.056;3.698;2022-10-16T01:58:19;10.32;;;1.57;;
70075;SDS011;63241;51.056;3.698;2022-10-16T02:01:09;3.62;;;1.50;;
70075;SDS011;63241;51.056;3.698;2022-10-16T02:04:03;9.73;;;1.40;;
70075;SDS011;63241;51.056;3.698;2022-10-16T02:06:52;4.70;;;1.55;;
70075;SDS011;63241;51.056;3.698;2022-10-16T02:09:40;4.33;;;1.70;;
70075;SDS011;63241;51.056;3.698;2022-10-16T02:12:29;3.15;;;1.30;;
70075;SDS011;63241;51.056;3.698;2022-10-16T02:15:20;2.80;;;1.42;;
70075;SDS011;63241;51.056;3.698;2022-10-16T02:18:08;5.58;;;1.60;;
70075;SDS011;63241;51.056;3.698;2022-10-16T02:20:58;2.77;;;1.20;;
70075;SDS011;63241;51.056;3.698;2022-10-16T02:23:51;3.52;;;1.70;;
70075;SDS011;63241;51.056;3.698;2022-10-16T02:26:47;4.17;;;1.57;;
70075;SDS011;63241;51.056;3.698;2022-10-16T02:29:53;3.30;;;1.50;;
70075;SDS011;63241;51.056;3.698;2022-10-16T02:32:43;3.67;;;1.70;;
70075;SDS011;63241;51.056;3.698;2022-10-16T02:35:32;3.47;;;1.70;;
70075;SDS011;63241;51.056;3.698;2022-10-16T02:38:19;2.95;;;1.60;;
70075;SDS011;63241;51.056;3.698;2022-10-16T02:41:08;2.25;;;1.62;;
70075;SDS011;63241;51.056;3.698;2022-10-16T02:43:56;4.20;;;1.70;;
70075;SDS011;63241;51.056;3.698;2022-10-16T02:46:44;4.97;;;1.80;;
70075;SDS011;63241;51.056;3.698;2022-10-16T02:49:33;3.60;;;1.50;;
70075;SDS011;63241;51.056;3.698;2022-10-16T02:52:22;6.42;;;2.08;;
70075;SDS011;63241;51.056;3.698;2022-10-16T02:55:09;6.62;;;1.95;;
70075;SDS011;63241;51.056;3.698;2022-10-16T02:57:58;7.47;;;1.98;;
70075;SDS011;63241;51.056;3.698;2022-10-16T03:00:26;6.83;;;1.98;;
70075;SDS011;63241;51.056;3.698;2022-10-16T03:03:13;6.90;;;2.30;;
70075;SDS011;63241;51.056;3.698;2022-10-16T03:06:01;4.80;;;1.90;;
70075;SDS011;63241;51.056;3.698;2022-10-16T03:08:49;3.27;;;1.87;;
70075;SDS011;63241;51.056;3.698;2022-10-16T03:11:37;3.67;;;1.72;;
70075;SDS011;63241;51.056;3.698;2022-10-16T03:14:25;6.65;;;1.80;;
70075;SDS011;63241;51.056;3.698;2022-10-16T03:17:13;3.12;;;1.72;;
70075;SDS011;63241;51.056;3.698;2022-10-16T03:20:01;6.33;;;2.45;;
70075;SDS011;63241;51.056;3.698;2022-10-16T03:22:49;4.03;;;1.80;;
70075;SDS011;63241;51.056;3.698;2022-10-16T03:25:37;3.42;;;1.77;;
70075;SDS011;63241;51.056;3.698;2022-10-16T03:28:23;8.33;;;2.22;;
70075;SDS011;63241;51.056;3.698;2022-10-16T03:31:12;2.77;;;1.70;;
70075;SDS011;63241;51.056;3.698;2022-10-16T03:34:00;4.33;;;2.05;;
70075;SDS011;63241;51.056;3.698;2022-10-16T03:36:48;8.55;;;1.87;;
70075;SDS011;63241;51.056;3.698;2022-10-16T03:39:36;8.30;;;1.87;;
70075;SDS011;63241;51.056;3.698;2022-10-16T03:42:24;4.95;;;1.62;;
70075;SDS011;63241;51.056;3.698;2022-10-16T03:45:12;3.08;;;1.70;;
70075;SDS011;63241;51.056;3.698;2022-10-16T03:47:41;6.12;;;2.05;;
70075;SDS011;63241;51.056;3.698;2022-10-16T03:50:29;4.28;;;1.70;;
70075;SDS011;63241;51.056;3.698;2022-10-16T03:53:17;7.85;;;1.80;;
70075;SDS011;63241;51.056;3.698;2022-10-16T03:56:05;5.30;;;2.00;;
70075;SDS011;63241;51.056;3.698;2022-10-16T03:58:53;2.98;;;1.67;;
70075;SDS011;63241;51.056;3.698;2022-10-16T04:01:41;5.58;;;2.17;;
70075;SDS011;63241;51.056;3.698;2022-10-16T04:04:39;6.15;;;1.95;;
70075;SDS011;63241;51.056;3.698;2022-10-16T04:07:27;4.55;;;1.62;;
70075;SDS011;63241;51.056;3.698;2022-10-16T04:10:17;6.72;;;2.05;;
70075;SDS011;63241;51.056;3.698;2022-10-16T04:13:06;7.35;;;2.00;;
70075;SDS011;63241;51.056;3.698;2022-10-16T04:15:53;10.03;;;2.52;;
70075;SDS011;63241;51.056;3.698;2022-10-16T04:18:41;8.03;;;2.12;;
70075;SDS011;63241;51.056;3.698;2022-10-16T04:21:29;5.25;;;2.10;;
70075;SDS011;63241;51.056;3.698;2022-10-16T04:24:17;5.60;;;1.92;;
70075;SDS011;63241;51.056;3.698;2022-10-16T04:27:05;8.78;;;2.20;;
70075;SDS011;63241;51.056;3.698;2022-10-16T04:29:55;4.05;;;1.95;;
70075;SDS011;63241;51.056;3.698;2022-10-16T04:32:43;6.70;;;2.00;;
70075;SDS011;63241;51.056;3.698;2022-10-16T04:35:36;3.80;;;1.72;;
70075;SDS011;63241;51.056;3.698;2022-10-16T04:38:24;5.42;;;2.00;;
70075;SDS011;63241;51.056;3.698;2022-10-16T04:40:51;5.70;;;2.40;;
70075;SDS011;63241;51.056;3.698;2022-10-16T04:43:39;8.85;;;2.22;;
70075;SDS011;63241;51.056;3.698;2022-10-16T04:46:27;5.92;;;2.10;;
70075;SDS011;63241;51.056;3.698;2022-10-16T04:52:56;5.55;;;2.15;;
70075;SDS011;63241;51.056;3.698;2022-10-16T04:55:52;6.05;;;2.50;;
70075;SDS011;63241;51.056;3.698;2022-10-16T04:58:40;4.12;;;2.08;;
70075;SDS011;63241;51.056;3.698;2022-10-16T05:01:29;7.12;;;2.42;;
70075;SDS011;63241;51.056;3.698;2022-10-16T05:04:17;8.10;;;2.60;;
70075;SDS011;63241;51.056;3.698;2022-10-16T05:07:05;6.78;;;2.40;;
70075;SDS011;63241;51.056;3.698;2022-10-16T05:09:53;6.37;;;2.45;;
70075;SDS011;63241;51.056;3.698;2022-10-16T05:12:42;11.73;;;2.40;;
70075;SDS011;63241;51.056;3.698;2022-10-16T05:15:29;4.08;;;2.20;;
70075;SDS011;63241;51.056;3.698;2022-10-16T05:18:18;5.33;;;2.40;;
70075;SDS011;63241;51.056;3.698;2022-10-16T05:21:05;7.90;;;2.33;;
70075;SDS011;63241;51.056;3.698;2022-10-16T05:23:53;5.47;;;2.33;;
70075;SDS011;63241;51.056;3.698;2022-10-16T05:26:20;4.92;;;2.00;;
70075;SDS011;63241;51.056;3.698;2022-10-16T05:29:07;4.75;;;2.35;;
70075;SDS011;63241;51.056;3.698;2022-10-16T05:31:56;5.45;;;2.25;;
70075;SDS011;63241;51.056;3.698;2022-10-16T05:34:44;5.55;;;2.00;;
70075;SDS011;63241;51.056;3.698;2022-10-16T05:37:33;2.37;;;1.70;;
70075;SDS011;63241;51.056;3.698;2022-10-16T05:40:29;7.30;;;1.80;;
70075;SDS011;63241;51.056;3.698;2022-10-16T05:43:17;7.15;;;2.02;;
70075;SDS011;63241;51.056;3.698;2022-10-16T05:46:09;6.25;;;1.80;;
70075;SDS011;63241;51.056;3.698;2022-10-16T05:48:57;5.45;;;2.20;;
70075;SDS011;63241;51.056;3.698;2022-10-16T05:51:45;4.97;;;2.00;;
70075;SDS011;63241;51.056;3.698;2022-10-16T05:54:33;7.20;;;2.10;;
70075;SDS011;63241;51.056;3.698;2022-10-16T05:57:23;6.87;;;2.15;;
70075;SDS011;63241;51.056;3.698;2022-10-16T06:00:16;4.72;;;2.02;;
70075;SDS011;63241;51.056;3.698;2022-10-16T06:03:04;5.10;;;1.60;;
70075;SDS011;63241;51.056;3.698;2022-10-16T06:05:52;6.95;;;2.12;;
70075;SDS011;63241;51.056;3.698;2022-10-16T06:08:44;10.08;;;2.52;;
70075;SDS011;63241;51.056;3.698;2022-10-16T06:14:40;6.12;;;2.30;;
70075;SDS011;63241;51.056;3.698;2022-10-16T06:17:28;6.35;;;2.08;;
70075;SDS011;63241;51.056;3.698;2022-10-16T06:20:21;6.53;;;2.30;;
70075;SDS011;63241;51.056;3.698;2022-10-16T06:23:10;6.25;;;2.22;;
70075;SDS011;63241;51.056;3.698;2022-10-16T06:26:10;8.35;;;2.17;;
70075;SDS011;63241;51.056;3.698;2022-10-16T06:28:58;6.28;;;1.65;;
70075;SDS011;63241;51.056;3.698;2022-10-16T06:31:53;6.17;;;2.55;;
70075;SDS011;63241;51.056;3.698;2022-10-16T06:34:41;8.05;;;2.25;;
70075;SDS011;63241;51.056;3.698;2022-10-16T06:37:31;5.97;;;1.98;;
70075;SDS011;63241;51.056;3.698;2022-10-16T06:40:19;5.67;;;1.98;;
70075;SDS011;63241;51.056;3.698;2022-10-16T06:43:08;5.30;;;1.72;;
70075;SDS011;63241;51.056;3.698;2022-10-16T06:45:56;7.20;;;2.30;;
70075;SDS011;63241;51.056;3.698;2022-10-16T06:48:44;10.85;;;2.33;;
70075;SDS011;63241;51.056;3.698;2022-10-16T06:51:33;9.35;;;2.02;;
70075;SDS011;63241;51.056;3.698;2022-10-16T06:54:21;5.47;;;2.08;;
70075;SDS011;63241;51.056;3.698;2022-10-16T06:57:09;9.68;;;2.60;;
70075;SDS011;63241;51.056;3.698;2022-10-16T06:59:57;9.23;;;2.12;;
70075;SDS011;63241;51.056;3.698;2022-10-16T07:02:49;6.20;;;2.02;;
70075;SDS011;63241;51.056;3.698;2022-10-16T07:05:37;5.03;;;2.20;;
70075;SDS011;63241;51.056;3.698;2022-10-16T07:08:25;5.10;;;2.30;;
70075;SDS011;63241;51.056;3.698;2022-10-16T07:11:14;5.37;;;1.98;;
70075;SDS011;63241;51.056;3.698;2022-10-16T07:14:08;5.05;;;2.00;;
70075;SDS011;63241;51.056;3.698;2022-10-16T07:17:02;5.20;;;2.10;;
70075;SDS011;63241;51.056;3.698;2022-10-16T07:19:56;11.75;;;2.40;;
70075;SDS011;63241;51.056;3.698;2022-10-16T07:23:03;4.05;;;1.82;;
70075;SDS011;63241;51.056;3.698;2022-10-16T07:25:54;5.35;;;2.10;;
70075;SDS011;63241;51.056;3.698;2022-10-16T07:28:43;4.22;;;2.00;;
70075;SDS011;63241;51.056;3.698;2022-10-16T07:31:29;4.83;;;1.92;;
70075;SDS011;63241;51.056;3.698;2022-10-16T07:34:18;5.87;;;2.27;;
70075;SDS011;63241;51.056;3.698;2022-10-16T07:37:06;5.70;;;2.10;;
70075;SDS011;63241;51.056;3.698;2022-10-16T07:39:54;9.15;;;2.90;;
70075;SDS011;63241;51.056;3.698;2022-10-16T07:42:21;7.95;;;2.40;;
70075;SDS011;63241;51.056;3.698;2022-10-16T07:45:09;6.37;;;2.40;;
70075;SDS011;63241;51.056;3.698;2022-10-16T07:48:05;8.55;;;2.35;;
70075;SDS011;63241;51.056;3.698;2022-10-16T07:50:57;4.72;;;1.90;;
70075;SDS011;63241;51.056;3.698;2022-10-16T07:53:45;5.75;;;2.12;;
70075;SDS011;63241;51.056;3.698;2022-10-16T07:56:34;5.72;;;1.77;;
70075;SDS011;63241;51.056;3.698;2022-10-16T07:59:22;5.40;;;1.90;;
70075;SDS011;63241;51.056;3.698;2022-10-16T08:02:10;8.85;;;1.70;;
70075;SDS011;63241;51.056;3.698;2022-10-16T08:04:58;4.92;;;1.50;;
70075;SDS011;63241;51.056;3.698;2022-10-16T08:07:50;8.68;;;2.25;;
70075;SDS011;63241;51.056;3.698;2022-10-16T08:10:38;4.70;;;1.90;;
70075;SDS011;63241;51.056;3.698;2022-10-16T08:13:27;3.77;;;1.60;;
70075;SDS011;63241;51.056;3.698;2022-10-16T08:16:15;5.72;;;1.92;;
70075;SDS011;63241;51.056;3.698;2022-10-16T08:19:03;7.50;;;1.80;;
70075;SDS011;63241;51.056;3.698;2022-10-16T08:21:52;6.65;;;1.92;;
70075;SDS011;63241;51.056;3.698;2022-10-16T08:24:44;4.83;;;2.05;;
70075;SDS011;63241;51.056;3.698;2022-10-16T08:27:32;3.95;;;1.50;;
70075;SDS011;63241;51.056;3.698;2022-10-16T08:30:20;8.78;;;1.82;;
70075;SDS011;63241;51.056;3.698;2022-10-16T08:33:10;9.20;;;2.10;;
70075;SDS011;63241;51.056;3.698;2022-10-16T08:35:36;5.55;;;1.95;;
70075;SDS011;63241;51.056;3.698;2022-10-16T08:38:26;5.62;;;2.12;;
70075;SDS011;63241;51.056;3.698;2022-10-16T08:44:28;8.80;;;1.67;;
70075;SDS011;63241;51.056;3.698;2022-10-16T08:47:22;6.22;;;1.77;;
70075;SDS011;63241;51.056;3.698;2022-10-16T08:50:29;6.45;;;2.25;;
70075;SDS011;63241;51.056;3.698;2022-10-16T08:53:27;5.75;;;1.92;;
70075;SDS011;63241;51.056;3.698;2022-10-16T08:56:20;7.25;;;1.90;;
70075;SDS011;63241;51.056;3.698;2022-10-16T08:58:40;5.67;;;1.77;;
70075;SDS011;63241;51.056;3.698;2022-10-16T09:01:37;4.72;;;1.72;;
70075;SDS011;63241;51.056;3.698;2022-10-16T09:10:51;6.55;;;2.08;;
70075;SDS011;63241;51.056;3.698;2022-10-16T09:17:00;7.17;;;2.10;;
70075;SDS011;63241;51.056;3.698;2022-10-16T09:19:54;6.85;;;2.35;;
70075;SDS011;63241;51.056;3.698;2022-10-16T09:22:41;4.58;;;1.50;;
70075;SDS011;63241;51.056;3.698;2022-10-16T09:25:29;5.12;;;1.95;;
70075;SDS011;63241;51.056;3.698;2022-10-16T09:28:19;6.75;;;1.70;;
70075;SDS011;63241;51.056;3.698;2022-10-16T09:31:13;5.58;;;2.17;;
70075;SDS011;63241;51.056;3.698;2022-10-16T09:34:04;7.03;;;2.30;;
70075;SDS011;63241;51.056;3.698;2022-10-16T09:36:54;8.28;;;1.85;;
70075;SDS011;63241;51.056;3.698;2022-10-16T09:39:45;7.12;;;1.75;;
70075;SDS011;63241;51.056;3.698;2022-10-16T09:42:36;6.33;;;2.25;;
70075;SDS011;63241;51.056;3.698;2022-10-16T09:45:02;5.78;;;2.25;;
70075;SDS011;63241;51.056;3.698;2022-10-16T09:47:52;5.10;;;2.02;;
70075;SDS011;63241;51.056;3.698;2022-10-16T09:50:41;5.87;;;2.17;;
70075;SDS011;63241;51.056;3.698;2022-10-16T09:53:38;9.23;;;2.30;;
70075;SDS011;63241;51.056;3.698;2022-10-16T09:56:33;7.08;;;2.55;;
70075;SDS011;63241;51.056;3.698;2022-10-16T09:59:22;7.87;;;2.20;;
70075;SDS011;63241;51.056;3.698;2022-10-16T10:02:18;7.87;;;2.52;;
70075;SDS011;63241;51.056;3.698;2022-10-16T10:05:22;6.42;;;2.37;;
70075;SDS011;63241;51.056;3.698;2022-10-16T10:08:14;5.12;;;2.25;;
70075;SDS011;63241;51.056;3.698;2022-10-16T10:11:05;7.08;;;2.40;;
70075;SDS011;63241;51.056;3.698;2022-10-16T10:14:03;6.47;;;2.20;;
70075;SDS011;63241;51.056;3.698;2022-10-16T10:16:45;7.75;;;2.47;;
70075;SDS011;63241;51.056;3.698;2022-10-16T10:19:41;7.95;;;2.20;;
70075;SDS011;63241;51.056;3.698;2022-10-16T10:22:43;8.35;;;2.40;;
70075;SDS011;63241;51.056;3.698;2022-10-16T10:25:44;6.67;;;2.27;;
70075;SDS011;63241;51.056;3.698;2022-10-16T10:34:51;14.93;;;5.65;;
70075;SDS011;63241;51.056;3.698;2022-10-16T10:44:50;7.10;;;2.37;;
70075;SDS011;63241;51.056;3.698;2022-10-16T10:47:59;9.48;;;2.50;;
70075;SDS011;63241;51.056;3.698;2022-10-16T10:54:36;9.03;;;2.40;;
70075;SDS011;63241;51.056;3.698;2022-10-16T10:57:35;6.20;;;2.20;;
70075;SDS011;63241;51.056;3.698;2022-10-16T11:00:40;15.28;;;8.63;;
70075;SDS011;63241;51.056;3.698;2022-10-16T11:06:46;8.88;;;3.02;;
70075;SDS011;63241;51.056;3.698;2022-10-16T11:09:53;6.40;;;2.15;;
70075;SDS011;63241;51.056;3.698;2022-10-16T11:12:46;7.35;;;2.20;;
70075;SDS011;63241;51.056;3.698;2022-10-16T11:15:35;9.30;;;2.80;;
70075;SDS011;63241;51.056;3.698;2022-10-16T11:21:32;6.80;;;1.80;;
70075;SDS011;63241;51.056;3.698;2022-10-16T11:24:34;10.00;;;2.50;;
70075;SDS011;63241;51.056;3.698;2022-10-16T11:27:17;10.25;;;2.40;;
70075;SDS011;63241;51.056;3.698;2022-10-16T11:30:26;7.28;;;2.08;;
70075;SDS011;63241;51.056;3.698;2022-10-16T11:33:25;6.78;;;2.35;;
70075;SDS011;63241;51.056;3.698;2022-10-16T11:39:22;8.58;;;2.50;;
70075;SDS011;63241;51.056;3.698;2022-10-16T11:42:27;9.83;;;2.17;;
70075;SDS011;63241;51.056;3.698;2022-10-16T11:45:33;8.13;;;2.40;;
70075;SDS011;63241;51.056;3.698;2022-10-16T11:48:25;6.20;;;2.55;;
70075;SDS011;63241;51.056;3.698;2022-10-16T11:51:15;7.92;;;2.10;;
70075;SDS011;63241;51.056;3.698;2022-10-16T11:57:33;7.87;;;1.82;;
70075;SDS011;63241;51.056;3.698;2022-10-16T12:00:25;6.00;;;2.08;;
70075;SDS011;63241;51.056;3.698;2022-10-16T12:03:25;6.20;;;2.12;;
70075;SDS011;63241;51.056;3.698;2022-10-16T12:09:25;11.45;;;3.10;;
70075;SDS011;63241;51.056;3.698;2022-10-16T12:18:20;5.92;;;2.08;;
70075;SDS011;63241;51.056;3.698;2022-10-16T12:21:13;6.50;;;2.22;;
70075;SDS011;63241;51.056;3.698;2022-10-16T12:24:04;7.25;;;2.12;;
70075;SDS011;63241;51.056;3.698;2022-10-16T12:26:53;5.35;;;1.72;;
70075;SDS011;63241;51.056;3.698;2022-10-16T12:29:41;7.53;;;1.80;;
70075;SDS011;63241;51.056;3.698;2022-10-16T12:32:36;8.53;;;2.08;;
70075;SDS011;63241;51.056;3.698;2022-10-16T12:35:26;5.25;;;1.95;;
70075;SDS011;63241;51.056;3.698;2022-10-16T12:41:32;3.15;;;1.45;;
70075;SDS011;63241;51.056;3.698;2022-10-16T12:44:24;6.17;;;1.70;;
70075;SDS011;63241;51.056;3.698;2022-10-16T12:47:21;5.17;;;1.60;;
70075;SDS011;63241;51.056;3.698;2022-10-16T12:50:26;4.03;;;1.65;;
70075;SDS011;63241;51.056;3.698;2022-10-16T12:53:24;4.75;;;2.00;;
70075;SDS011;63241;51.056;3.698;2022-10-16T12:56:16;5.90;;;2.10;;
70075;SDS011;63241;51.056;3.698;2022-10-16T13:05:42;4.87;;;1.35;;
70075;SDS011;63241;51.056;3.698;2022-10-16T13:15:01;4.42;;;1.67;;
70075;SDS011;63241;51.056;3.698;2022-10-16T13:24:02;5.42;;;1.95;;
70075;SDS011;63241;51.056;3.698;2022-10-16T13:30:13;8.68;;;1.80;;
70075;SDS011;63241;51.056;3.698;2022-10-16T13:33:26;5.50;;;1.50;;
70075;SDS011;63241;51.056;3.698;2022-10-16T13:36:23;3.90;;;1.57;;
70075;SDS011;63241;51.056;3.698;2022-10-16T13:39:15;5.20;;;1.62;;
70075;SDS011;63241;51.056;3.698;2022-10-16T13:42:26;5.33;;;1.30;;
70075;SDS011;63241;51.056;3.698;2022-10-16T13:45:34;5.12;;;1.50;;
70075;SDS011;63241;51.056;3.698;2022-10-16T13:48:21;6.00;;;1.50;;
70075;SDS011;63241;51.056;3.698;2022-10-16T13:54:03;4.47;;;1.60;;
70075;SDS011;63241;51.056;3.698;2022-10-16T13:56:51;3.83;;;1.50;;
70075;SDS011;63241;51.056;3.698;2022-10-16T13:59:39;6.53;;;1.50;;
70075;SDS011;63241;51.056;3.698;2022-10-16T14:02:27;4.03;;;1.27;;
70075;SDS011;63241;51.056;3.698;2022-10-16T14:05:19;3.15;;;1.07;;
70075;SDS011;63241;51.056;3.698;2022-10-16T14:07:49;2.40;;;1.07;;
70075;SDS011;63241;51.056;3.698;2022-10-16T14:10:38;3.90;;;1.45;;
70075;SDS011;63241;51.056;3.698;2022-10-16T14:13:43;4.25;;;1.30;;
70075;SDS011;63241;51.056;3.698;2022-10-16T14:16:33;4.83;;;2.02;;
70075;SDS011;63241;51.056;3.698;2022-10-16T14:19:27;3.72;;;1.70;;
70075;SDS011;63241;51.056;3.698;2022-10-16T14:22:36;5.60;;;2.52;;
70075;SDS011;63241;51.056;3.698;2022-10-16T14:25:27;3.37;;;1.95;;
70075;SDS011;63241;51.056;3.698;2022-10-16T14:28:18;4.05;;;1.92;;
70075;SDS011;63241;51.056;3.698;2022-10-16T14:34:34;7.33;;;3.58;;
70075;SDS011;63241;51.056;3.698;2022-10-16T14:37:27;5.47;;;4.00;;
70075;SDS011;63241;51.056;3.698;2022-10-16T14:40:23;5.92;;;3.12;;
70075;SDS011;63241;51.056;3.698;2022-10-16T14:43:05;5.25;;;1.70;;
70075;SDS011;63241;51.056;3.698;2022-10-16T14:45:55;6.55;;;1.60;;
70075;SDS011;63241;51.056;3.698;2022-10-16T14:49:00;3.20;;;1.47;;
70075;SDS011;63241;51.056;3.698;2022-10-16T14:52:00;3.92;;;1.15;;
70075;SDS011;63241;51.056;3.698;2022-10-16T14:54:49;3.90;;;2.10;;
70075;SDS011;63241;51.056;3.698;2022-10-16T14:57:38;5.08;;;1.50;;
70075;SDS011;63241;51.056;3.698;2022-10-16T15:00:09;1.32;;;1.05;;
70075;SDS011;63241;51.056;3.698;2022-10-16T15:03:03;8.75;;;5.45;;
70075;SDS011;63241;51.056;3.698;2022-10-16T15:05:52;7.03;;;2.50;;
70075;SDS011;63241;51.056;3.698;2022-10-16T15:08:40;6.35;;;3.12;;
70075;SDS011;63241;51.056;3.698;2022-10-16T15:11:28;4.60;;;2.12;;
70075;SDS011;63241;51.056;3.698;2022-10-16T15:14:19;4.95;;;1.47;;
70075;SDS011;63241;51.056;3.698;2022-10-16T15:17:11;2.42;;;1.00;;
70075;SDS011;63241;51.056;3.698;2022-10-16T15:19:38;2.97;;;1.13;;
70075;SDS011;63241;51.056;3.698;2022-10-16T15:22:27;2.22;;;1.00;;
70075;SDS011;63241;51.056;3.698;2022-10-16T15:25:25;4.17;;;1.95;;
70075;SDS011;63241;51.056;3.698;2022-10-16T15:28:10;4.55;;;1.98;;
70075;SDS011;63241;51.056;3.698;2022-10-16T15:30:59;5.17;;;1.70;;
70075;SDS011;63241;51.056;3.698;2022-10-16T15:33:52;5.83;;;1.52;;
70075;SDS011;63241;51.056;3.698;2022-10-16T15:36:57;4.12;;;1.20;;
70075;SDS011;63241;51.056;3.698;2022-10-16T15:39:47;3.85;;;1.42;;
70075;SDS011;63241;51.056;3.698;2022-10-16T15:42:36;5.40;;;1.95;;
70075;SDS011;63241;51.056;3.698;2022-10-16T15:45:25;2.37;;;1.25;;
70075;SDS011;63241;51.056;3.698;2022-10-16T15:48:14;7.62;;;1.90;;
70075;SDS011;63241;51.056;3.698;2022-10-16T15:51:07;4.00;;;1.60;;
70075;SDS011;63241;51.056;3.698;2022-10-16T15:54:13;7.45;;;2.05;;
70075;SDS011;63241;51.056;3.698;2022-10-16T15:57:02;6.70;;;1.80;;
70075;SDS011;63241;51.056;3.698;2022-10-16T15:59:50;5.75;;;1.85;;
70075;SDS011;63241;51.056;3.698;2022-10-16T16:02:50;3.95;;;1.37;;
70075;SDS011;63241;51.056;3.698;2022-10-16T16:05:40;4.40;;;1.42;;
70075;SDS011;63241;51.056;3.698;2022-10-16T16:08:28;3.72;;;1.77;;
70075;SDS011;63241;51.056;3.698;2022-10-16T16:11:18;4.20;;;2.02;;
70075;SDS011;63241;51.056;3.698;2022-10-16T16:14:07;8.28;;;1.95;;
70075;SDS011;63241;51.056;3.698;2022-10-16T16:16:57;6.15;;;1.55;;
70075;SDS011;63241;51.056;3.698;2022-10-16T16:19:46;7.03;;;1.95;;
70075;SDS011;63241;51.056;3.698;2022-10-16T16:22:34;5.80;;;1.70;;
70075;SDS011;63241;51.056;3.698;2022-10-16T16:28:31;8.50;;;2.83;;
70075;SDS011;63241;51.056;3.698;2022-10-16T16:31:18;5.37;;;2.17;;
70075;SDS011;63241;51.056;3.698;2022-10-16T16:34:08;7.72;;;2.33;;
70075;SDS011;63241;51.056;3.698;2022-10-16T16:36:57;8.15;;;2.33;;
70075;SDS011;63241;51.056;3.698;2022-10-16T16:39:45;8.38;;;2.95;;
70075;SDS011;63241;51.056;3.698;2022-10-16T16:42:34;10.43;;;3.60;;
70075;SDS011;63241;51.056;3.698;2022-10-16T16:45:21;5.87;;;2.10;;
70075;SDS011;63241;51.056;3.698;2022-10-16T16:48:09;7.70;;;2.70;;
70075;SDS011;63241;51.056;3.698;2022-10-16T16:51:09;7.00;;;2.90;;
70075;SDS011;63241;51.056;3.698;2022-10-16T16:53:54;11.22;;;2.85;;
70075;SDS011;63241;51.056;3.698;2022-10-16T17:00:23;5.60;;;2.52;;
70075;SDS011;63241;51.056;3.698;2022-10-16T17:02:50;5.30;;;2.65;;
70075;SDS011;63241;51.056;3.698;2022-10-16T17:05:38;4.60;;;2.40;;
70075;SDS011;63241;51.056;3.698;2022-10-16T17:08:26;10.53;;;3.55;;
70075;SDS011;63241;51.056;3.698;2022-10-16T17:11:17;7.20;;;3.40;;
70075;SDS011;63241;51.056;3.698;2022-10-16T17:14:07;7.83;;;4.45;;
70075;SDS011;63241;51.056;3.698;2022-10-16T17:16:58;7.92;;;3.50;;
70075;SDS011;63241;51.056;3.698;2022-10-16T17:19:48;8.18;;;3.65;;
70075;SDS011;63241;51.056;3.698;2022-10-16T17:22:38;9.25;;;3.70;;
70075;SDS011;63241;51.056;3.698;2022-10-16T17:25:26;11.78;;;3.87;;
70075;SDS011;63241;51.056;3.698;2022-10-16T17:28:14;6.40;;;2.70;;
70075;SDS011;63241;51.056;3.698;2022-10-16T17:31:36;8.93;;;3.27;;
70075;SDS011;63241;51.056;3.698;2022-10-16T17:34:20;7.03;;;3.85;;
70075;SDS011;63241;51.056;3.698;2022-10-16T17:37:08;10.40;;;4.37;;
70075;SDS011;63241;51.056;3.698;2022-10-16T17:39:56;8.88;;;3.87;;
70075;SDS011;63241;51.056;3.698;2022-10-16T17:42:44;9.38;;;4.30;;
70075;SDS011;63241;51.056;3.698;2022-10-16T17:45:35;8.73;;;3.70;;
70075;SDS011;63241;51.056;3.698;2022-10-16T17:51:11;15.60;;;5.10;;
70075;SDS011;63241;51.056;3.698;2022-10-16T17:53:59;12.98;;;4.17;;
70075;SDS011;63241;51.056;3.698;2022-10-16T17:56:53;9.90;;;4.58;;
70075;SDS011;63241;51.056;3.698;2022-10-16T17:59:14;11.53;;;4.65;;
70075;SDS011;63241;51.056;3.698;2022-10-16T18:02:03;9.95;;;4.25;;
70075;SDS011;63241;51.056;3.698;2022-10-16T18:05:11;8.83;;;4.03;;
70075;SDS011;63241;51.056;3.698;2022-10-16T18:08:00;9.68;;;4.03;;
70075;SDS011;63241;51.056;3.698;2022-10-16T18:10:48;10.48;;;4.20;;
70075;SDS011;63241;51.056;3.698;2022-10-16T18:13:38;7.80;;;3.60;;
70075;SDS011;63241;51.056;3.698;2022-10-16T18:16:26;6.20;;;2.98;;
70075;SDS011;63241;51.056;3.698;2022-10-16T18:19:16;6.55;;;2.95;;
70075;SDS011;63241;51.056;3.698;2022-10-16T18:22:04;6.22;;;3.15;;
70075;SDS011;63241;51.056;3.698;2022-10-16T18:24:53;9.08;;;3.12;;
70075;SDS011;63241;51.056;3.698;2022-10-16T18:27:41;6.42;;;3.50;;
70075;SDS011;63241;51.056;3.698;2022-10-16T18:30:29;11.20;;;4.20;;
70075;SDS011;63241;51.056;3.698;2022-10-16T18:33:17;8.00;;;3.50;;
70075;SDS011;63241;51.056;3.698;2022-10-16T18:35:45;6.45;;;3.22;;
70075;SDS011;63241;51.056;3.698;2022-10-16T18:38:33;7.28;;;3.60;;
70075;SDS011;63241;51.056;3.698;2022-10-16T18:41:21;6.30;;;3.35;;
70075;SDS011;63241;51.056;3.698;2022-10-16T18:44:10;6.75;;;3.52;;
70075;SDS011;63241;51.056;3.698;2022-10-16T18:46:57;7.22;;;3.35;;
70075;SDS011;63241;51.056;3.698;2022-10-16T18:49:51;10.43;;;3.60;;
70075;SDS011;63241;51.056;3.698;2022-10-16T18:52:35;7.15;;;3.95;;
70075;SDS011;63241;51.056;3.698;2022-10-16T18:55:24;10.03;;;4.58;;
70075;SDS011;63241;51.056;3.698;2022-10-16T18:58:11;14.60;;;5.05;;
70075;SDS011;63241;51.056;3.698;2022-10-16T19:01:09;8.33;;;3.83;;